createdAt,value
2019-03-20T00:01:13.964Z," 5.94"
2019-03-20T00:06:09.197Z," 6.01"
2019-03-20T00:11:04.729Z," 6.01"
2019-03-20T00:16:00.146Z," 5.93"
2019-03-20T00:20:55.739Z," 5.93"
2019-03-20T00:25:51.429Z," 5.86"
2019-03-20T00:30:48.107Z," 5.89"
2019-03-20T00:35:43.822Z," 5.73"
2019-03-20T00:40:39.606Z," 5.68"
2019-03-20T00:45:35.029Z," 5.69"
2019-03-20T00:50:31.714Z," 5.54"
2019-03-20T00:55:28.586Z," 5.69"
2019-03-20T01:00:24.010Z," 5.59"
2019-03-20T01:05:20.731Z," 5.65"
2019-03-20T01:10:17.077Z," 5.73"
2019-03-20T01:15:12.054Z," 5.75"
2019-03-20T01:20:07.605Z," 5.73"
2019-03-20T01:25:03.613Z," 5.72"
2019-03-20T01:29:59.412Z," 5.71"
2019-03-20T01:34:55.179Z," 5.71"
2019-03-20T01:39:50.459Z," 5.69"
2019-03-20T01:44:46.117Z," 5.62"
2019-03-20T01:49:41.832Z," 5.59"
2019-03-20T01:54:37.545Z," 5.54"
2019-03-20T01:59:33.229Z," 5.53"
2019-03-20T02:04:29.051Z," 5.61"
2019-03-20T02:09:24.777Z," 5.51"
2019-03-20T02:14:21.136Z," 5.66"
2019-03-20T02:19:16.895Z," 5.50"
2019-03-20T02:24:12.468Z," 5.47"
2019-03-20T02:29:09.538Z," 5.30"
2019-03-20T02:34:04.803Z," 5.14"
2019-03-20T02:39:00.376Z," 5.07"
2019-03-20T02:43:57.161Z," 4.90"
2019-03-20T02:48:52.517Z," 4.78"
2019-03-20T02:53:48.007Z," 4.74"
2019-03-20T02:58:43.435Z," 4.71"
2019-03-20T03:03:39.028Z," 4.63"
2019-03-20T03:08:34.672Z," 4.60"
2019-03-20T03:13:30.457Z," 4.59"
2019-03-20T03:18:26.118Z," 4.68"
2019-03-20T03:23:21.789Z," 4.63"
2019-03-20T03:28:17.363Z," 4.73"
2019-03-20T03:33:13.231Z," 4.82"
2019-03-20T03:38:08.974Z," 4.71"
2019-03-20T03:43:05.377Z," 4.74"
2019-03-20T03:48:01.147Z," 4.84"
2019-03-20T03:52:56.883Z," 4.90"
2019-03-20T03:57:52.538Z," 4.87"
2019-03-20T04:02:48.099Z," 4.90"
2019-03-20T04:07:43.840Z," 5.02"
2019-03-20T04:12:41.046Z," 4.96"
2019-03-20T04:17:36.509Z," 4.99"
2019-03-20T04:22:32.336Z," 5.00"
2019-03-20T04:27:28.047Z," 5.05"
2019-03-20T04:32:23.647Z," 5.10"
2019-03-20T04:37:20.432Z," 5.20"
2019-03-20T04:42:16.201Z," 5.12"
2019-03-20T04:47:11.979Z," 5.23"
2019-03-20T04:52:07.743Z," 5.21"
2019-03-20T04:57:03.355Z," 5.21"
2019-03-20T05:01:59.095Z," 5.20"
2019-03-20T05:06:59.191Z," 5.25"
2019-03-20T05:11:53.870Z," 5.28"
2019-03-20T05:16:50.569Z," 5.33"
2019-03-20T05:21:45.970Z," 5.25"
2019-03-20T05:26:41.697Z," 5.11"
2019-03-20T05:31:37.327Z," 5.18"
2019-03-20T05:36:33.656Z," 5.21"
2019-03-20T05:41:29.315Z," 5.21"
2019-03-20T05:46:24.963Z," 5.18"
2019-03-20T05:51:20.619Z," 5.20"
2019-03-20T05:56:16.637Z," 5.25"
2019-03-20T06:01:12.346Z," 5.23"
2019-03-20T06:06:09.139Z," 5.26"
2019-03-20T06:11:04.730Z," 5.46"
2019-03-20T06:16:01.457Z," 5.94"
2019-03-20T06:20:57.742Z," 6.33"
2019-03-20T06:25:53.739Z," 6.41"
2019-03-20T06:30:50.428Z," 6.33"
2019-03-20T06:35:46.239Z," 6.26"
2019-03-20T06:40:41.995Z," 6.44"
2019-03-20T06:45:38.155Z," 6.44"
2019-03-20T06:50:34.023Z," 6.46"
2019-03-20T06:55:29.860Z," 6.54"
2019-03-20T07:00:25.789Z," 7.03"
2019-03-20T07:05:22.560Z," 7.67"
2019-03-20T07:10:18.699Z," 7.77"
2019-03-20T07:15:14.540Z," 7.76"
2019-03-20T07:20:10.218Z," 7.76"
2019-03-20T07:25:05.930Z," 7.67"
2019-03-20T07:30:02.472Z," 8.00"
2019-03-20T07:34:59.804Z," 8.34"
2019-03-20T07:39:55.512Z," 8.27"
2019-03-20T07:44:52.342Z," 8.28"
2019-03-20T07:49:47.601Z," 8.16"
2019-03-20T07:54:42.973Z," 8.18"
2019-03-20T07:59:38.859Z," 8.61"
2019-03-20T08:04:34.887Z," 8.97"
2019-03-20T08:09:31.270Z," 9.56"
2019-03-20T08:14:28.596Z," 9.55"
2019-03-20T08:19:25.365Z," 9.46"
2019-03-20T08:24:22.011Z," 9.46"
2019-03-20T08:29:18.621Z," 9.46"
2019-03-20T08:34:15.182Z," 9.55"
2019-03-20T08:39:11.154Z," 9.98"
2019-03-20T08:44:06.971Z,10.23
2019-03-20T08:49:03.107Z,10.34
2019-03-20T08:53:58.698Z,10.42
2019-03-20T08:58:54.372Z,10.26
2019-03-20T09:03:50.445Z,10.25
2019-03-20T09:08:47.381Z,10.40
2019-03-20T09:13:42.980Z,10.48
2019-03-20T09:18:39.111Z,10.40
2019-03-20T09:23:34.900Z,10.41
2019-03-20T09:28:32.135Z,10.67
2019-03-20T09:33:28.866Z,10.86
2019-03-20T09:38:24.869Z,11.00
2019-03-20T09:43:20.856Z,11.00
2019-03-20T09:48:17.082Z,11.10
2019-03-20T09:53:13.247Z,11.11
2019-03-20T09:58:11.697Z,11.27
2019-03-20T10:03:07.240Z,11.37
2019-03-20T10:08:03.900Z,11.55
2019-03-20T10:12:59.979Z,12.03
2019-03-20T10:17:55.997Z,12.07
2019-03-20T10:22:52.840Z,12.25
2019-03-20T10:27:48.315Z,12.36
2019-03-20T10:32:44.048Z,12.43
2019-03-20T10:37:39.671Z,12.39
2019-03-20T10:42:35.600Z,12.36
2019-03-20T10:47:31.714Z,12.47
2019-03-20T10:52:27.853Z,12.58
2019-03-20T10:57:23.545Z,12.65
2019-03-20T11:02:20.429Z,12.70
2019-03-20T11:07:17.234Z,12.55
2019-03-20T11:12:12.692Z,12.72
2019-03-20T11:17:08.397Z,12.87
2019-03-20T11:22:04.764Z,13.11
2019-03-20T11:27:00.858Z,13.37
2019-03-20T11:31:57.369Z,13.37
2019-03-20T11:36:54.754Z,13.53
2019-03-20T11:41:50.259Z,13.53
2019-03-20T11:46:46.769Z,13.42
2019-03-20T11:51:42.299Z,13.38
2019-03-20T11:56:38.670Z,13.31
2019-03-20T12:01:34.968Z,13.25
2019-03-20T12:06:30.972Z,13.23
2019-03-20T12:11:27.087Z,13.16
2019-03-20T12:16:22.777Z,13.04
2019-03-20T12:21:20.015Z,12.94
2019-03-20T12:26:16.266Z,12.97
2019-03-20T12:31:12.286Z,13.09
2019-03-20T12:36:09.178Z,13.04
2019-03-20T12:41:04.608Z,13.12
2019-03-20T12:46:01.404Z,13.03
2019-03-20T12:50:57.731Z,13.01
2019-03-20T12:55:54.458Z,12.91
2019-03-20T13:00:50.178Z,12.90
2019-03-20T13:05:45.955Z,12.76
2019-03-20T13:10:41.249Z,12.94
2019-03-20T13:15:37.258Z,12.86
2019-03-20T13:20:32.992Z,12.72
2019-03-20T13:25:28.964Z,12.78
2019-03-20T13:30:25.687Z,12.67
2019-03-20T13:35:21.005Z,12.86
2019-03-20T13:40:17.231Z,12.83
2019-03-20T13:45:13.313Z,12.91
2019-03-20T13:50:09.617Z,12.93
2019-03-20T13:55:05.357Z,12.98
2019-03-20T14:00:01.126Z,12.90
2019-03-20T14:04:56.780Z,12.95
2019-03-20T14:09:52.256Z,12.93
2019-03-20T14:14:48.029Z,12.87
2019-03-20T14:19:43.987Z,12.86
2019-03-20T14:24:39.723Z,12.85
2019-03-20T14:29:35.652Z,12.68
2019-03-20T14:34:31.524Z,12.65
2019-03-20T14:39:27.261Z,12.60
2019-03-20T14:44:23.011Z,12.67
2019-03-20T14:49:19.735Z,12.54
2019-03-20T14:54:16.402Z,12.46
2019-03-20T14:59:11.619Z,12.50
2019-03-20T15:04:08.249Z,12.40
2019-03-20T15:09:03.898Z,12.40
2019-03-20T15:14:00.798Z,12.47
2019-03-20T15:18:56.377Z,12.45
2019-03-20T15:23:53.337Z,12.39
2019-03-20T15:28:48.910Z,12.24
2019-03-20T15:33:44.646Z,12.27
2019-03-20T15:38:40.815Z,12.31
2019-03-20T15:43:37.447Z,12.31
2019-03-20T15:48:34.303Z,12.25
2019-03-20T15:53:29.878Z,12.29
2019-03-20T15:58:26.720Z,12.29
2019-03-20T16:03:22.322Z,12.40
2019-03-20T16:08:19.071Z,12.37
2019-03-20T16:13:14.572Z,12.36
2019-03-20T16:18:10.734Z,12.49
2019-03-20T16:23:06.442Z,12.37
2019-03-20T16:28:01.812Z,12.42
2019-03-20T16:32:57.720Z,12.40
2019-03-20T16:37:53.361Z,12.43
2019-03-20T16:42:49.379Z,12.32
2019-03-20T16:47:45.187Z,12.32
2019-03-20T16:52:40.879Z,12.31
2019-03-20T16:57:36.492Z,12.31
2019-03-20T17:02:32.135Z,12.29
2019-03-20T17:07:27.906Z,12.17
2019-03-20T17:12:24.030Z,12.22
2019-03-20T17:17:21.640Z,12.17
2019-03-20T17:22:16.818Z,12.18
2019-03-20T17:27:12.645Z,12.02
2019-03-20T17:32:08.484Z,12.09
2019-03-20T17:37:04.768Z,11.97
2019-03-20T17:42:00.565Z,12.06
2019-03-20T17:46:56.272Z,11.97
2019-03-20T17:51:51.918Z,11.86
2019-03-20T17:56:48.144Z,11.91
2019-03-20T18:01:44.689Z,11.86
2019-03-20T18:06:40.214Z,11.86
2019-03-20T18:11:36.033Z,11.81
2019-03-20T18:16:32.431Z,11.81
2019-03-20T18:21:28.985Z,11.80
2019-03-20T18:26:25.428Z,11.69
2019-03-20T18:31:21.142Z,11.72
2019-03-20T18:36:17.040Z,11.73
2019-03-20T18:41:13.466Z,11.68
2019-03-20T18:46:09.760Z,11.66
2019-03-20T18:51:07.169Z,11.57
2019-03-20T18:56:03.026Z,11.52
2019-03-20T19:00:58.966Z,11.54
2019-03-20T19:05:55.093Z,11.54
2019-03-20T19:10:52.461Z,11.50
2019-03-20T19:15:48.416Z,11.48
2019-03-20T19:20:44.240Z,11.43
2019-03-20T19:25:41.174Z,11.41
2019-03-20T19:30:36.642Z,11.54
2019-03-20T19:40:35.623Z,11.47
2019-03-20T19:45:32.324Z,11.57
2019-03-20T19:50:29.174Z,11.57
2019-03-20T19:55:24.373Z,11.54
2019-03-20T20:00:20.064Z,11.51
2019-03-20T20:05:16.416Z,11.55
2019-03-20T20:10:12.301Z,11.59
2019-03-20T20:15:08.072Z,11.52
2019-03-20T20:20:04.819Z,11.54
2019-03-20T20:25:01.442Z,11.51
2019-03-20T20:29:56.671Z,11.47
2019-03-20T20:34:53.555Z,11.55
2019-03-20T20:39:49.307Z,11.51
2019-03-20T20:44:46.041Z,11.52
2019-03-20T20:49:41.510Z,11.50
2019-03-20T20:54:37.874Z,11.52
2019-03-20T20:59:33.469Z,11.51
2019-03-20T21:04:29.163Z,11.60
2019-03-20T21:09:25.184Z,11.57
2019-03-20T21:14:21.006Z,11.50
2019-03-20T21:19:17.042Z,11.59
2019-03-20T21:24:12.848Z,11.55
2019-03-20T21:29:08.375Z,11.50
2019-03-20T21:34:04.209Z,11.52
2019-03-20T21:39:00.012Z,11.54
2019-03-20T21:43:56.453Z,11.59
2019-03-20T21:48:52.342Z,11.47
2019-03-20T21:53:47.914Z,11.57
2019-03-20T21:58:43.528Z,11.36
2019-03-20T22:03:39.639Z,11.51
2019-03-20T22:08:35.375Z,11.55
2019-03-20T22:13:31.630Z,11.47
2019-03-20T22:18:27.434Z,11.40
2019-03-20T22:23:24.541Z,11.40
2019-03-20T22:28:20.396Z,11.43
2019-03-20T22:33:16.644Z,11.40
2019-03-20T22:38:13.788Z,11.40
2019-03-20T22:43:09.228Z,11.43
2019-03-20T22:48:04.757Z,11.43
2019-03-20T22:53:00.699Z,11.48
2019-03-20T22:57:56.750Z,11.33
2019-03-20T23:02:52.443Z,11.43
2019-03-20T23:07:48.399Z,11.41
2019-03-20T23:12:45.145Z,11.30
2019-03-20T23:17:40.816Z,11.40
2019-03-20T23:22:36.686Z,11.33
2019-03-20T23:27:32.270Z,11.25
2019-03-20T23:32:28.185Z,11.25
2019-03-20T23:37:23.918Z,11.23
2019-03-20T23:42:19.711Z,11.18
2019-03-20T23:47:16.355Z,11.19
2019-03-20T23:52:12.022Z,11.18
2019-03-20T23:57:07.931Z,11.17
